Terminal Aerodrome Forecast
Issued by NWS

Home | Current Version | Previous Version | Text Only | Print | Product List | Glossary On
Versions: 1 2 3 4 5 6 7 8 9 10 11 12 13 14
822
FTUS42 KMLB 110543
TAFFPR
TAF
KFPR 110543Z 1106/1206 08011KT P6SM VCSH BKN035 BKN045 OVC090
     FM111400 08012G17KT P6SM VCSH BKN040
     FM120000 08010KT P6SM SCT030 BKN040=

USA.gov is the U.S. government's official web portal to all federal, state and local government web resources and services.